createdAt,value
2023-01-08T00:19:56.579Z,21.20
2023-01-08T01:02:39.430Z,15.47
2023-01-08T01:09:02.394Z,19.98
2023-01-08T01:12:09.653Z,17.38
2023-01-08T01:23:58.597Z,13.95
2023-01-08T01:27:16.612Z,14.48
2023-01-08T01:34:14.635Z,14.57
2023-01-08T01:37:06.116Z,16.10
2023-01-08T01:43:11.328Z,13.02
2023-01-08T01:46:13.765Z,12.38
2023-01-08T01:52:03.598Z,13.85
2023-01-08T01:54:46.484Z,13.77
2023-01-08T01:57:48.589Z,13.07
2023-01-08T02:00:38.258Z,13.27
2023-01-08T02:03:12.268Z,11.77
2023-01-08T02:06:11.515Z,13.00
2023-01-08T02:09:29.564Z,12.18
2023-01-08T02:13:34.227Z,14.23
2023-01-08T02:17:34.600Z,12.27
2023-01-08T02:19:54.133Z,12.60
2023-01-08T02:22:48.541Z,11.43
2023-01-08T02:25:36.700Z,12.10
2023-01-08T02:28:19.939Z,11.27
2023-01-08T02:30:57.555Z,13.48
2023-01-08T02:33:34.178Z,12.33
2023-01-08T02:36:23.278Z,13.20
2023-01-08T02:39:42.547Z,12.50
2023-01-08T02:42:52.774Z,13.15
2023-01-08T02:45:57.993Z,13.90
2023-01-08T02:48:49.799Z,14.73
2023-01-08T02:51:44.183Z,14.02
2023-01-08T02:54:29.037Z,13.52
2023-01-08T02:57:22.257Z,13.52
2023-01-08T03:00:10.222Z,13.50
2023-01-08T03:02:46.728Z,14.47
2023-01-08T03:05:26.973Z,13.23
2023-01-08T03:08:03.306Z,14.50
2023-01-08T03:10:49.692Z,12.68
2023-01-08T03:13:39.308Z,13.70
2023-01-08T03:16:18.971Z,14.27
2023-01-08T03:19:02.168Z,12.45
2023-01-08T03:21:43.361Z,11.88
2023-01-08T03:24:42.687Z,9.27
2023-01-08T03:27:25.270Z,11.57
2023-01-08T03:30:18.098Z,10.67
2023-01-08T03:33:06.370Z,11.52
2023-01-08T03:36:09.352Z,10.18
2023-01-08T03:38:52.322Z,9.77
2023-01-08T03:41:30.974Z,10.18
2023-01-08T03:44:20.268Z,9.13
2023-01-08T03:47:01.972Z,9.18
2023-01-08T03:50:10.773Z,8.77
2023-01-08T03:52:53.063Z,10.05
2023-01-08T03:55:32.139Z,8.98
2023-01-08T03:58:13.897Z,10.63
2023-01-08T04:01:02.141Z,10.27
2023-01-08T04:03:43.541Z,10.60
2023-01-08T04:06:24.971Z,8.90
2023-01-08T04:09:31.782Z,10.38
2023-01-08T04:12:18.203Z,9.30
2023-01-08T04:17:43.506Z,9.57
2023-01-08T04:20:20.190Z,9.27
2023-01-08T04:22:57.044Z,10.05
2023-01-08T04:25:32.152Z,9.30
2023-01-08T04:28:10.353Z,9.65
2023-01-08T04:30:49.767Z,9.40
2023-01-08T04:33:28.479Z,11.48
2023-01-08T04:36:02.024Z,10.13
2023-01-08T04:38:58.568Z,9.87
2023-01-08T04:41:37.995Z,8.97
2023-01-08T04:44:25.155Z,12.18
2023-01-08T04:47:08.247Z,9.68
2023-01-08T04:52:57.796Z,10.10
2023-01-08T04:55:51.095Z,11.10
2023-01-08T04:58:38.939Z,9.25
2023-01-08T05:01:12.920Z,10.90
2023-01-08T05:04:26.998Z,9.98
2023-01-08T05:07:08.425Z,8.95
2023-01-08T05:13:18.177Z,10.40
2023-01-08T05:16:00.450Z,8.98
2023-01-08T05:18:52.998Z,11.30
2023-01-08T05:24:23.950Z,11.23
2023-01-08T05:26:54.891Z,11.57
2023-01-08T05:29:29.001Z,13.05
2023-01-08T05:32:05.664Z,17.75
2023-01-08T05:34:45.511Z,13.77
2023-01-08T05:37:17.691Z,17.67
2023-01-08T05:40:12.653Z,17.10
2023-01-08T05:42:51.000Z,16.45
2023-01-08T05:45:35.666Z,16.05
2023-01-08T05:48:30.803Z,15.93
2023-01-08T05:51:17.898Z,15.07
2023-01-08T05:57:32.742Z,13.88
2023-01-08T06:00:26.597Z,13.63
2023-01-08T06:03:14.798Z,14.85
2023-01-08T06:05:58.732Z,14.03
2023-01-08T06:08:41.208Z,16.27
2023-01-08T06:11:22.955Z,15.95
2023-01-08T06:14:18.567Z,13.63
2023-01-08T06:17:09.200Z,12.30
2023-01-08T06:19:51.153Z,12.80
2023-01-08T06:22:32.950Z,15.02
2023-01-08T06:25:15.667Z,15.68
2023-01-08T06:27:57.950Z,11.18
2023-01-08T06:30:49.672Z,14.18
2023-01-08T06:33:33.968Z,11.70
2023-01-08T06:38:57.751Z,10.38
2023-01-08T06:41:46.409Z,11.93
2023-01-08T06:44:30.314Z,9.50
2023-01-08T06:47:16.783Z,11.63
2023-01-08T06:51:37.636Z,9.90
2023-01-08T06:53:10.834Z,10.85
2023-01-08T06:56:04.227Z,11.43
2023-01-08T06:58:40.817Z,10.82
2023-01-08T07:01:27.298Z,9.93
2023-01-08T07:04:37.758Z,14.27
2023-01-08T07:07:22.211Z,12.30
2023-01-08T07:10:28.853Z,13.82
2023-01-08T07:13:22.485Z,10.68
2023-01-08T07:16:36.680Z,13.90
2023-01-08T07:22:53.030Z,16.42
2023-01-08T07:28:43.982Z,18.20
2023-01-08T07:31:26.057Z,14.43
2023-01-08T07:35:57.361Z,13.57
2023-01-08T07:37:43.467Z,10.18
2023-01-08T07:40:19.107Z,11.20
2023-01-08T07:43:05.641Z,9.93
2023-01-08T07:45:46.190Z,10.93
2023-01-08T07:48:16.847Z,10.05
2023-01-08T07:51:01.069Z,12.85
2023-01-08T07:53:58.964Z,11.75
2023-01-08T07:56:59.855Z,15.70
2023-01-08T07:59:57.331Z,11.47
2023-01-08T08:02:42.309Z,11.43
2023-01-08T08:05:20.944Z,13.43
2023-01-08T08:07:55.962Z,13.88
2023-01-08T08:10:40.408Z,14.60
2023-01-08T08:13:56.595Z,12.90
2023-01-08T08:16:33.713Z,11.15
2023-01-08T08:19:28.175Z,10.68
2023-01-08T08:22:23.817Z,14.00
2023-01-08T08:25:34.780Z,12.68
2023-01-08T08:28:12.782Z,13.90
2023-01-08T08:31:17.316Z,9.77
2023-01-08T08:33:52.398Z,14.75
2023-01-08T08:36:33.927Z,12.65
2023-01-08T08:39:28.667Z,12.10
2023-01-08T08:42:13.190Z,14.43
2023-01-08T08:44:49.359Z,12.02
2023-01-08T08:47:26.877Z,13.18
2023-01-08T08:50:17.527Z,11.52
2023-01-08T08:53:14.168Z,10.95
2023-01-08T08:56:28.717Z,11.00
2023-01-08T08:59:16.771Z,10.23
2023-01-08T09:02:10.352Z,7.45
2023-01-08T09:04:55.599Z,7.07
2023-01-08T09:07:46.731Z,8.38
2023-01-08T09:10:29.770Z,7.03
2023-01-08T09:13:47.974Z,8.70
2023-01-08T09:16:27.315Z,7.00
2023-01-08T09:19:14.949Z,7.10
2023-01-08T09:21:55.859Z,9.27
2023-01-08T09:24:38.135Z,5.43
2023-01-08T09:27:16.089Z,5.30
2023-01-08T09:32:48.015Z,6.60
2023-01-08T09:35:26.771Z,5.63
2023-01-08T09:38:12.867Z,6.97
2023-01-08T09:41:15.379Z,8.07
2023-01-08T09:43:55.828Z,10.55
2023-01-08T09:49:46.467Z,11.43
2023-01-08T09:52:31.173Z,9.27
2023-01-08T09:55:24.353Z,9.50
2023-01-08T09:58:24.285Z,10.23
2023-01-08T10:01:32.795Z,10.05
2023-01-08T10:04:37.689Z,9.00
2023-01-08T10:07:38.242Z,11.73
2023-01-08T10:13:30.637Z,12.43
2023-01-08T10:16:06.206Z,6.22
2023-01-08T10:19:11.628Z,7.05
2023-01-08T10:22:10.286Z,5.70
2023-01-08T10:24:56.308Z,7.28
2023-01-08T10:27:26.733Z,4.50
2023-01-08T10:30:22.971Z,5.20
2023-01-08T11:15:33.525Z,5.93
2023-01-08T11:18:14.062Z,7.65
2023-01-08T11:24:27.987Z,5.55
2023-01-08T11:27:42.844Z,3.70
2023-01-08T11:34:14.729Z,4.28
2023-01-08T11:40:57.165Z,5.57
2023-01-08T12:32:05.675Z,6.75
2023-01-08T16:07:43.840Z,11.13
2023-01-08T16:11:23.464Z,8.68
2023-01-08T16:35:12.675Z,10.88
2023-01-08T16:37:05.376Z,12.10
2023-01-08T16:39:35.532Z,9.17
2023-01-08T16:42:13.339Z,8.83
2023-01-08T16:44:43.776Z,9.27
2023-01-08T16:47:23.696Z,10.48
2023-01-08T16:49:53.772Z,10.25
2023-01-08T16:52:27.717Z,7.90
2023-01-08T16:54:55.490Z,11.10
2023-01-08T16:57:31.028Z,9.70
2023-01-08T17:00:04.088Z,8.75
2023-01-08T17:02:32.199Z,9.63
2023-01-08T17:05:02.290Z,8.45
2023-01-08T17:07:36.186Z,10.20
2023-01-08T17:10:17.116Z,10.03
2023-01-08T17:12:49.055Z,8.47
2023-01-08T17:15:34.860Z,9.20
2023-01-08T17:18:08.572Z,11.60
2023-01-08T17:20:37.125Z,10.95
2023-01-08T17:23:13.953Z,12.05
2023-01-08T17:25:41.641Z,9.70
2023-01-08T17:28:09.951Z,12.82
2023-01-08T17:30:40.775Z,12.88
2023-01-08T17:33:14.643Z,11.13
2023-01-08T17:35:45.450Z,9.90
2023-01-08T17:38:13.306Z,11.43
2023-01-08T17:40:41.047Z,12.63
2023-01-08T17:43:11.193Z,11.00
2023-01-08T17:45:39.895Z,10.48
2023-01-08T17:48:18.052Z,10.20
2023-01-08T17:51:00.141Z,10.82
2023-01-08T17:53:37.839Z,12.43
2023-01-08T17:56:08.294Z,11.02
2023-01-08T17:58:43.285Z,12.88
2023-01-08T18:04:50.254Z,14.27
2023-01-08T18:10:37.360Z,11.75
2023-01-08T18:13:13.892Z,10.98
2023-01-08T18:18:25.739Z,14.65
2023-01-08T18:21:01.815Z,15.90
2023-01-08T18:23:33.427Z,15.52
2023-01-08T18:26:13.537Z,13.18
2023-01-08T18:28:48.297Z,15.18
2023-01-08T18:31:28.492Z,14.90
2023-01-08T18:34:06.195Z,13.67
2023-01-08T18:36:46.644Z,14.25
2023-01-08T18:39:16.995Z,14.30
2023-01-08T18:42:08.586Z,13.82
2023-01-08T18:44:38.832Z,15.57
2023-01-08T18:47:15.442Z,18.70
2023-01-08T18:49:47.994Z,17.67
2023-01-08T18:52:41.011Z,15.27
2023-01-08T18:55:49.766Z,16.38
2023-01-08T18:58:36.889Z,16.83
2023-01-08T19:01:32.895Z,14.50
2023-01-08T19:04:16.241Z,16.60
2023-01-08T19:07:02.578Z,15.07
2023-01-08T19:09:36.912Z,13.25
2023-01-08T19:12:18.281Z,13.77
2023-01-08T19:15:04.883Z,14.13
2023-01-08T19:17:37.679Z,17.77
2023-01-08T19:20:11.456Z,14.57
2023-01-08T19:22:43.713Z,22.73
2023-01-08T19:25:11.408Z,16.70
2023-01-08T19:27:38.967Z,14.25
2023-01-08T19:30:07.753Z,16.93
2023-01-08T19:32:36.420Z,15.50
2023-01-08T19:35:07.890Z,17.20
2023-01-08T19:37:38.436Z,14.90
2023-01-08T19:40:07.127Z,16.13
2023-01-08T19:42:53.579Z,13.77
2023-01-08T19:45:23.375Z,16.90
2023-01-08T19:47:52.542Z,17.02
2023-01-08T19:50:21.221Z,17.52
2023-01-08T19:52:49.169Z,17.35
2023-01-08T19:55:19.366Z,16.43
2023-01-08T19:57:46.961Z,15.60
2023-01-08T20:00:15.275Z,16.05
2023-01-08T20:02:43.066Z,19.25
2023-01-08T20:05:10.947Z,18.40
2023-01-08T20:07:38.749Z,21.40
2023-01-08T20:10:11.196Z,20.03
2023-01-08T20:12:39.631Z,21.40
2023-01-08T20:15:07.714Z,20.30
2023-01-08T20:17:35.369Z,23.88
2023-01-08T20:20:03.083Z,21.73
2023-01-08T20:22:31.319Z,21.80
2023-01-08T20:24:58.947Z,19.75
2023-01-08T20:27:26.544Z,17.73
2023-01-08T20:29:55.040Z,20.83
2023-01-08T20:32:23.557Z,22.50
2023-01-08T20:34:51.272Z,21.23
2023-01-08T20:37:24.288Z,19.33
2023-01-08T20:39:52.434Z,18.27
2023-01-08T20:42:33.497Z,18.63
2023-01-08T20:45:03.620Z,18.73
2023-01-08T20:47:35.226Z,18.50
2023-01-08T20:50:07.108Z,16.50
2023-01-08T20:52:40.173Z,15.98
2023-01-08T20:55:11.935Z,18.73
2023-01-08T20:57:39.489Z,16.02
2023-01-08T21:00:07.886Z,15.52
2023-01-08T21:02:35.391Z,15.27
2023-01-08T21:05:03.064Z,14.98
2023-01-08T21:07:30.680Z,15.18
2023-01-08T21:09:59.868Z,13.88
2023-01-08T21:12:29.865Z,15.95
2023-01-08T21:14:57.486Z,13.83
2023-01-08T21:17:25.059Z,13.07
2023-01-08T21:19:52.755Z,14.40
2023-01-08T21:22:20.377Z,14.57
2023-01-08T21:24:49.267Z,15.32
2023-01-08T21:27:16.965Z,16.10
2023-01-08T21:29:44.443Z,15.93
2023-01-08T21:32:13.109Z,20.25
2023-01-08T21:34:40.781Z,21.30
2023-01-08T21:37:08.692Z,19.17
2023-01-08T21:39:36.425Z,21.20
2023-01-08T21:42:23.134Z,20.30
2023-01-08T21:45:09.723Z,22.97
2023-01-08T21:47:37.279Z,22.67
2023-01-08T21:50:07.688Z,22.50
2023-01-08T21:52:54.018Z,24.00
2023-01-08T21:55:22.183Z,22.40
2023-01-08T21:57:49.815Z,25.40
2023-01-08T22:00:17.972Z,23.90
2023-01-08T22:02:45.643Z,21.98
2023-01-08T22:05:13.313Z,20.75
2023-01-08T22:07:44.020Z,23.50
2023-01-08T22:10:12.098Z,27.43
2023-01-08T22:12:40.380Z,16.90
2023-01-08T22:15:09.928Z,15.30
2023-01-08T22:17:37.816Z,16.10
2023-01-08T22:20:09.945Z,13.68
2023-01-08T22:22:38.642Z,13.57
2023-01-08T22:25:06.887Z,12.30
2023-01-08T22:27:34.484Z,12.55
2023-01-08T22:30:19.024Z,9.77
2023-01-08T22:32:52.989Z,10.32
2023-01-08T22:35:21.128Z,10.48
2023-01-08T22:37:48.868Z,9.27
2023-01-08T22:40:19.200Z,8.13
2023-01-08T22:42:47.008Z,9.48
2023-01-08T22:45:14.725Z,12.70
2023-01-08T22:47:43.446Z,8.65
2023-01-08T22:50:11.425Z,9.05
2023-01-08T22:52:39.056Z,10.47
2023-01-08T22:55:07.757Z,13.90
2023-01-08T22:57:37.946Z,13.63
2023-01-08T23:00:08.427Z,11.00
2023-01-08T23:02:36.640Z,13.38
2023-01-08T23:05:11.210Z,12.27
2023-01-08T23:07:38.900Z,11.70
2023-01-08T23:10:09.132Z,12.50
2023-01-08T23:12:36.856Z,12.80
2023-01-08T23:15:08.265Z,12.52
2023-01-08T23:17:44.588Z,9.40
2023-01-08T23:20:20.087Z,10.10
2023-01-08T23:22:51.143Z,8.48
2023-01-08T23:25:18.973Z,7.82
2023-01-08T23:27:46.723Z,8.70
2023-01-08T23:30:14.535Z,9.37
2023-01-08T23:32:42.314Z,7.00
2023-01-08T23:35:12.226Z,8.60
2023-01-08T23:37:39.842Z,7.50
2023-01-08T23:40:08.046Z,7.53
2023-01-08T23:42:35.720Z,8.03
2023-01-08T23:45:03.191Z,8.20
2023-01-08T23:47:32.029Z,8.85
2023-01-08T23:50:02.852Z,6.82
2023-01-08T23:52:30.488Z,7.05
2023-01-08T23:55:01.120Z,7.63
2023-01-08T23:57:31.797Z,7.57
2023-01-08T23:59:59.528Z,8.52
